createdAt,value
2022-09-01T00:00:31.391Z,69.45
2022-09-01T00:01:31.378Z,69.50
2022-09-01T00:02:31.403Z,69.53
2022-09-01T00:03:31.351Z,69.51
2022-09-01T00:04:31.392Z,69.75
2022-09-01T00:05:31.347Z,69.88
2022-09-01T00:06:31.319Z,70.14
2022-09-01T00:07:31.303Z,70.33
2022-09-01T00:08:31.314Z,70.50
2022-09-01T00:09:31.280Z,70.58
2022-09-01T00:10:31.274Z,70.74
2022-09-01T00:11:31.259Z,70.93
2022-09-01T00:12:31.244Z,71.02
2022-09-01T00:13:31.236Z,71.11
2022-09-01T00:14:31.232Z,71.22
2022-09-01T00:15:31.255Z,71.21
2022-09-01T00:16:31.197Z,71.23
2022-09-01T00:17:31.204Z,70.98
2022-09-01T00:18:31.183Z,70.75
2022-09-01T00:19:31.158Z,70.62
2022-09-01T00:20:31.181Z,70.54
2022-09-01T00:21:31.149Z,70.70
2022-09-01T00:22:31.131Z,70.64
2022-09-01T00:23:31.132Z,70.66
2022-09-01T00:24:31.102Z,70.86
2022-09-01T00:25:31.107Z,70.76
2022-09-01T00:26:31.067Z,70.87
2022-09-01T00:27:31.205Z,70.53
2022-09-01T00:28:31.054Z,70.41
2022-09-01T00:29:31.046Z,70.34
2022-09-01T00:30:31.036Z,70.37
2022-09-01T00:31:31.054Z,70.46
2022-09-01T00:32:31.009Z,70.63
2022-09-01T00:33:31.004Z,70.72
2022-09-01T00:34:30.990Z,70.87
2022-09-01T00:35:30.986Z,70.82
2022-09-01T00:36:31.961Z,71.01
2022-09-01T00:37:30.946Z,71.09
2022-09-01T00:38:30.929Z,71.02
2022-09-01T00:39:30.930Z,71.11
2022-09-01T00:40:30.970Z,71.04
2022-09-01T00:41:30.912Z,71.15
2022-09-01T00:42:30.890Z,71.31
2022-09-01T00:43:30.883Z,71.38
2022-09-01T00:44:31.321Z,71.44
2022-09-01T00:45:30.870Z,71.54
2022-09-01T00:46:30.933Z,71.69
2022-09-01T00:47:30.841Z,71.84
2022-09-01T00:48:30.821Z,72.07
2022-09-01T00:49:31.506Z,72.17
2022-09-01T00:50:30.818Z,72.15
2022-09-01T00:51:30.786Z,71.55
2022-09-01T00:52:30.773Z,71.33
2022-09-01T00:53:30.764Z,71.24
2022-09-01T00:54:30.762Z,71.16
2022-09-01T00:55:30.763Z,71.40
2022-09-01T00:56:30.731Z,71.42
2022-09-01T00:57:30.711Z,71.36
2022-09-01T00:58:30.710Z,71.36
2022-09-01T00:59:30.696Z,71.41
2022-09-01T01:00:30.701Z,71.43
2022-09-01T01:01:30.750Z,71.64
2022-09-01T01:02:30.667Z,71.64
2022-09-01T01:03:30.655Z,71.73
2022-09-01T01:04:30.645Z,71.73
2022-09-01T01:05:30.629Z,71.73
2022-09-01T01:06:30.834Z,71.71
2022-09-01T01:07:30.604Z,71.75
2022-09-01T01:08:30.584Z,71.76
2022-09-01T01:09:30.586Z,71.73
2022-09-01T01:10:30.565Z,71.88
2022-09-01T01:11:30.575Z,72.28
2022-09-01T01:12:30.547Z,72.56
2022-09-01T01:13:30.544Z,72.83
2022-09-01T01:14:30.515Z,73.15
2022-09-01T01:15:30.518Z,73.49
2022-09-01T01:16:30.553Z,73.54
2022-09-01T01:17:30.485Z,74.10
2022-09-01T01:18:30.474Z,74.28
2022-09-01T01:19:30.486Z,74.39
2022-09-01T01:20:31.447Z,74.40
2022-09-01T01:21:31.396Z,74.32
2022-09-01T01:22:30.424Z,74.25
2022-09-01T01:23:30.421Z,74.15
2022-09-01T01:24:30.406Z,74.18
2022-09-01T01:25:30.441Z,74.51
2022-09-01T01:26:30.385Z,74.73
2022-09-01T01:27:30.391Z,74.98
2022-09-01T01:28:30.359Z,75.20
2022-09-01T01:29:30.357Z,75.33
2022-09-01T01:30:30.369Z,75.31
2022-09-01T01:31:30.330Z,75.27
2022-09-01T01:32:30.326Z,75.13
2022-09-01T01:33:30.304Z,74.95
2022-09-01T01:34:30.280Z,74.72
2022-09-01T01:35:30.279Z,74.61
2022-09-01T01:36:30.272Z,74.52
2022-09-01T01:37:30.253Z,74.25
2022-09-01T01:38:30.267Z,74.11
2022-09-01T01:39:30.229Z,73.98
2022-09-01T01:40:30.312Z,73.91
2022-09-01T01:41:30.206Z,73.72
2022-09-01T01:42:30.194Z,73.72
2022-09-01T01:43:30.190Z,73.76
2022-09-01T01:44:30.189Z,73.84
2022-09-01T01:45:30.159Z,73.82
2022-09-01T01:46:30.212Z,73.96
2022-09-01T01:47:30.144Z,73.98
2022-09-01T01:48:30.120Z,74.00
2022-09-01T01:49:30.129Z,74.19
2022-09-01T01:50:30.101Z,74.32
2022-09-01T01:51:30.090Z,74.28
2022-09-01T01:52:30.078Z,74.25
2022-09-01T01:53:30.076Z,74.22
2022-09-01T01:54:30.060Z,74.59
2022-09-01T01:55:30.053Z,74.64
2022-09-01T01:56:30.035Z,74.94
2022-09-01T01:57:30.020Z,75.10
2022-09-01T01:58:30.000Z,75.12
2022-09-01T01:59:29.996Z,75.05
2022-09-01T02:00:30.376Z,75.04
2022-09-01T02:01:30.019Z,74.99
2022-09-01T02:02:30.062Z,74.77
2022-09-01T02:03:29.951Z,74.59
2022-09-01T02:04:29.935Z,74.55
2022-09-01T02:05:29.942Z,74.62
2022-09-01T02:06:29.916Z,74.77
2022-09-01T02:07:31.515Z,74.87
2022-09-01T02:08:29.889Z,74.93
2022-09-01T02:09:29.883Z,74.89
2022-09-01T02:10:29.884Z,74.86
2022-09-01T02:11:29.854Z,74.46
2022-09-01T02:12:29.839Z,74.35
2022-09-01T02:13:29.841Z,74.27
2022-09-01T02:14:29.817Z,74.33
2022-09-01T02:15:29.825Z,74.60
2022-09-01T02:16:29.908Z,74.90
2022-09-01T02:17:29.785Z,74.97
2022-09-01T02:18:29.763Z,75.05
2022-09-01T02:19:29.763Z,75.13
2022-09-01T02:20:29.769Z,75.26
2022-09-01T02:21:29.735Z,74.97
2022-09-01T02:22:29.723Z,75.01
2022-09-01T02:23:29.716Z,74.63
2022-09-01T02:24:29.701Z,74.36
2022-09-01T02:25:29.711Z,74.42
2022-09-01T02:26:29.680Z,74.41
2022-09-01T02:27:29.678Z,74.29
2022-09-01T02:28:29.658Z,74.38
2022-09-01T02:29:29.648Z,74.43
2022-09-01T02:30:29.685Z,74.56
2022-09-01T02:31:29.626Z,74.68
2022-09-01T02:32:29.606Z,74.64
2022-09-01T02:33:29.603Z,74.62
2022-09-01T02:34:29.575Z,74.74
2022-09-01T02:35:29.587Z,74.76
2022-09-01T02:36:29.565Z,74.94
2022-09-01T02:37:29.553Z,75.11
2022-09-01T02:38:29.538Z,75.27
2022-09-01T02:39:29.537Z,75.46
2022-09-01T02:40:29.542Z,75.68
2022-09-01T02:41:29.558Z,75.94
2022-09-01T02:42:29.488Z,75.90
2022-09-01T02:43:29.485Z,75.90
2022-09-01T02:44:29.460Z,76.01
2022-09-01T02:45:29.468Z,76.20
2022-09-01T02:46:29.448Z,76.24
2022-09-01T02:47:29.735Z,76.59
2022-09-01T02:48:29.425Z,76.54
2022-09-01T02:49:29.416Z,76.57
2022-09-01T02:50:29.402Z,76.51
2022-09-01T02:51:29.419Z,75.99
2022-09-01T02:52:29.374Z,75.95
2022-09-01T02:53:29.358Z,76.02
2022-09-01T02:54:29.350Z,76.15
2022-09-01T02:55:29.330Z,76.23
2022-09-01T02:56:29.327Z,76.36
2022-09-01T02:57:29.330Z,75.97
2022-09-01T02:58:29.301Z,75.82
2022-09-01T02:59:29.279Z,75.77
2022-09-01T03:00:29.271Z,75.74
2022-09-01T03:01:29.779Z,75.70
2022-09-01T03:02:29.248Z,75.58
2022-09-01T03:03:29.259Z,75.49
2022-09-01T03:04:29.272Z,75.59
2022-09-01T03:05:29.225Z,75.62
2022-09-01T03:06:29.207Z,75.60
2022-09-01T03:07:29.199Z,75.58
2022-09-01T03:08:29.193Z,75.51
2022-09-01T03:09:29.181Z,75.48
2022-09-01T03:10:29.161Z,75.41
2022-09-01T03:11:29.151Z,75.35
2022-09-01T03:12:29.151Z,75.41
2022-09-01T03:13:29.141Z,75.60
2022-09-01T03:14:29.118Z,75.58
2022-09-01T03:15:29.098Z,75.60
2022-09-01T03:16:29.134Z,75.82
2022-09-01T03:17:29.075Z,75.85
2022-09-01T03:18:29.083Z,75.90
2022-09-01T03:19:29.054Z,75.94
2022-09-01T03:20:29.044Z,76.15
2022-09-01T03:21:29.028Z,76.25
2022-09-01T03:22:29.022Z,76.22
2022-09-01T03:23:29.024Z,76.35
2022-09-01T03:24:28.992Z,76.60
2022-09-01T03:25:28.988Z,76.67
2022-09-01T03:26:28.970Z,76.84
2022-09-01T03:27:28.962Z,76.94
2022-09-01T03:28:28.965Z,77.01
2022-09-01T03:29:28.930Z,76.94
2022-09-01T03:30:28.922Z,76.82
2022-09-01T03:31:30.968Z,76.83
2022-09-01T03:32:28.894Z,76.83
2022-09-01T03:33:28.904Z,76.84
2022-09-01T03:34:28.874Z,76.88
2022-09-01T03:35:28.857Z,76.84
2022-09-01T03:36:28.855Z,76.80
2022-09-01T03:37:28.834Z,76.81
2022-09-01T03:38:28.848Z,76.80
2022-09-01T03:39:28.814Z,76.79
2022-09-01T03:40:28.832Z,76.94
2022-09-01T03:41:28.792Z,77.03
2022-09-01T03:42:28.784Z,77.01
2022-09-01T03:43:34.525Z,77.03
2022-09-01T03:44:29.765Z,76.99
2022-09-01T03:45:28.798Z,76.95
2022-09-01T03:46:31.050Z,76.96
2022-09-01T03:47:28.729Z,76.92
2022-09-01T03:48:28.717Z,77.01
2022-09-01T03:49:28.754Z,77.17
2022-09-01T03:50:28.691Z,77.31
2022-09-01T03:51:28.677Z,77.63
2022-09-01T03:52:28.666Z,77.67
2022-09-01T03:53:28.657Z,77.77
2022-09-01T03:54:28.669Z,77.77
2022-09-01T03:55:28.618Z,77.82
2022-09-01T03:56:28.627Z,77.96
2022-09-01T03:57:28.607Z,78.04
2022-09-01T03:58:28.594Z,78.14
2022-09-01T03:59:28.597Z,78.29
2022-09-01T04:00:28.578Z,78.37
2022-09-01T04:01:28.675Z,78.46
2022-09-01T04:02:28.601Z,78.47
2022-09-01T04:03:31.040Z,78.53
2022-09-01T04:04:28.552Z,78.54
2022-09-01T04:05:28.509Z,78.59
2022-09-01T04:06:28.497Z,78.58
2022-09-01T04:07:28.488Z,78.51
2022-09-01T04:08:32.339Z,78.46
2022-09-01T04:09:28.481Z,78.50
2022-09-01T04:10:28.461Z,78.37
2022-09-01T04:11:28.452Z,78.20
2022-09-01T04:12:28.466Z,78.18
2022-09-01T04:13:28.420Z,78.23
2022-09-01T04:14:29.234Z,78.24
2022-09-01T04:15:28.388Z,78.21
2022-09-01T04:16:28.411Z,78.24
2022-09-01T04:17:30.559Z,78.28
2022-09-01T04:18:28.361Z,78.31
2022-09-01T04:19:28.372Z,78.35
2022-09-01T04:20:28.352Z,78.34
2022-09-01T04:21:28.319Z,78.34
2022-09-01T04:22:28.322Z,78.32
2022-09-01T04:23:28.310Z,78.31
2022-09-01T04:24:28.427Z,78.35
2022-09-01T04:25:28.283Z,78.34
2022-09-01T04:26:28.270Z,78.38
2022-09-01T04:27:28.262Z,78.39
2022-09-01T04:28:28.244Z,78.39
2022-09-01T04:29:28.239Z,78.44
2022-09-01T04:30:28.247Z,78.39
2022-09-01T04:31:28.232Z,78.35
2022-09-01T04:32:28.214Z,78.30
2022-09-01T04:33:28.185Z,78.28
2022-09-01T04:34:28.183Z,78.26
2022-09-01T04:35:28.181Z,78.30
2022-09-01T04:36:28.156Z,78.46
2022-09-01T04:37:28.143Z,78.62
2022-09-01T04:38:28.134Z,78.72
2022-09-01T04:39:28.127Z,78.72
2022-09-01T04:40:28.167Z,78.77
2022-09-01T04:41:28.088Z,78.72
2022-09-01T04:42:28.082Z,78.79
2022-09-01T04:43:28.082Z,78.79
2022-09-01T04:44:28.063Z,78.70
2022-09-01T04:45:28.112Z,78.65
2022-09-01T04:46:28.046Z,78.61
2022-09-01T04:47:28.025Z,78.65
2022-09-01T04:48:28.014Z,78.64
2022-09-01T04:49:28.001Z,78.65
2022-09-01T04:50:28.014Z,78.75
2022-09-01T04:51:27.979Z,78.83
2022-09-01T04:52:27.972Z,78.99
2022-09-01T04:53:28.578Z,79.05
2022-09-01T04:54:27.946Z,79.01
2022-09-01T04:55:27.947Z,79.02
2022-09-01T04:56:27.923Z,79.00
2022-09-01T04:57:27.907Z,79.07
2022-09-01T04:58:27.903Z,79.09
2022-09-01T04:59:27.893Z,78.99
2022-09-01T05:00:27.889Z,78.96
2022-09-01T05:01:27.918Z,78.77
2022-09-01T05:02:27.888Z,78.70
2022-09-01T05:03:27.836Z,78.77
2022-09-01T05:04:27.828Z,78.86
2022-09-01T05:05:27.815Z,79.02
2022-09-01T05:06:27.821Z,79.15
2022-09-01T05:07:27.798Z,79.27
2022-09-01T05:08:27.783Z,79.30
2022-09-01T05:09:27.775Z,79.42
2022-09-01T05:10:27.769Z,79.49
2022-09-01T05:11:27.776Z,79.48
2022-09-01T05:12:27.736Z,79.41
2022-09-01T05:13:27.729Z,79.23
2022-09-01T05:14:27.715Z,79.21
2022-09-01T05:15:27.689Z,79.22
2022-09-01T05:16:27.762Z,79.17
2022-09-01T05:17:27.688Z,79.17
2022-09-01T05:18:27.668Z,79.21
2022-09-01T05:19:27.656Z,79.29
2022-09-01T05:20:27.641Z,79.32
2022-09-01T05:21:27.634Z,79.45
2022-09-01T05:22:27.630Z,79.53
2022-09-01T05:23:27.608Z,79.64
2022-09-01T05:24:27.594Z,79.73
2022-09-01T05:25:27.579Z,79.84
2022-09-01T05:26:27.578Z,79.94
2022-09-01T05:27:27.560Z,79.96
2022-09-01T05:28:27.546Z,80.06
2022-09-01T05:29:27.533Z,80.13
2022-09-01T05:30:27.524Z,80.27
2022-09-01T05:31:27.563Z,80.24
2022-09-01T05:32:27.505Z,80.27
2022-09-01T05:33:27.490Z,80.22
2022-09-01T05:34:27.498Z,80.15
2022-09-01T05:35:31.639Z,80.13
2022-09-01T05:36:28.467Z,80.18
2022-09-01T05:37:27.431Z,80.31
2022-09-01T05:38:27.437Z,80.44
2022-09-01T05:39:27.418Z,80.47
2022-09-01T05:40:27.481Z,80.43
2022-09-01T05:41:27.408Z,80.42
2022-09-01T05:42:27.383Z,80.43
2022-09-01T05:43:27.376Z,80.34
2022-09-01T05:44:27.370Z,80.32
2022-09-01T05:45:27.352Z,80.24
2022-09-01T05:46:27.381Z,80.27
2022-09-01T05:47:27.340Z,79.97
2022-09-01T05:48:27.315Z,79.74
2022-09-01T05:49:27.304Z,79.64
2022-09-01T05:50:27.285Z,79.47
2022-09-01T05:51:43.896Z,79.12
2022-09-01T05:52:28.292Z,79.06
2022-09-01T05:53:27.242Z,79.16
2022-09-01T05:54:27.251Z,79.13
2022-09-01T05:55:27.245Z,79.17
2022-09-01T05:56:27.221Z,79.25
2022-09-01T05:57:35.246Z,79.62
2022-09-01T05:59:22.419Z,79.79
2022-09-01T05:59:28.195Z,79.82
2022-09-01T06:00:27.176Z,79.48
2022-09-01T06:01:27.196Z,79.36
2022-09-01T06:02:27.560Z,79.60
2022-09-01T06:03:27.190Z,79.51
2022-09-01T06:04:27.136Z,79.34
2022-09-01T06:05:27.116Z,79.30
2022-09-01T06:06:27.106Z,79.32
2022-09-01T06:07:27.114Z,79.34
2022-09-01T06:08:27.084Z,79.40
2022-09-01T06:09:27.065Z,79.18
2022-09-01T06:10:27.130Z,78.96
2022-09-01T06:11:27.055Z,79.03
2022-09-01T06:12:27.076Z,78.92
2022-09-01T06:13:27.438Z,78.74
2022-09-01T06:14:27.012Z,78.75
2022-09-01T06:15:27.002Z,78.78
2022-09-01T06:16:27.024Z,78.55
2022-09-01T06:17:26.990Z,78.14
2022-09-01T06:18:26.970Z,77.88
2022-09-01T06:19:26.956Z,77.92
2022-09-01T06:20:26.960Z,77.74
2022-09-01T06:21:26.923Z,77.49
2022-09-01T06:22:26.918Z,77.31
2022-09-01T06:23:26.938Z,77.17
2022-09-01T06:24:26.908Z,76.57
2022-09-01T06:25:26.880Z,76.11
2022-09-01T06:26:26.866Z,75.54
2022-09-01T06:27:26.855Z,75.04
2022-09-01T06:28:26.858Z,74.56
2022-09-01T06:29:26.836Z,73.84
2022-09-01T06:30:26.905Z,73.31
2022-09-01T06:31:26.839Z,71.96
2022-09-01T06:32:26.798Z,71.08
2022-09-01T06:33:26.807Z,70.23
2022-09-01T06:34:26.778Z,69.98
2022-09-01T06:35:26.762Z,68.90
2022-09-01T06:36:26.749Z,68.31
2022-09-01T06:37:26.741Z,67.90
2022-09-01T06:38:26.741Z,67.37
2022-09-01T06:39:26.714Z,66.58
2022-09-01T06:40:26.900Z,66.14
2022-09-01T06:41:26.718Z,65.46
2022-09-01T06:42:26.687Z,64.64
2022-09-01T06:43:26.659Z,64.77
2022-09-01T06:44:26.663Z,63.95
2022-09-01T06:45:26.688Z,63.34
2022-09-01T06:46:26.710Z,62.85
2022-09-01T06:47:26.630Z,61.97
2022-09-01T06:48:26.653Z,61.42
2022-09-01T06:49:26.594Z,60.94
2022-09-01T06:51:27.571Z,59.65
2022-09-01T06:52:26.921Z,59.00
2022-09-01T06:53:34.550Z,58.63
2022-09-01T06:54:27.547Z,58.33
2022-09-01T06:55:26.532Z,57.92
2022-09-01T06:56:26.512Z,57.53
2022-09-01T06:58:27.498Z,57.22
2022-09-01T06:59:29.149Z,56.55
2022-09-01T07:00:26.657Z,55.60
2022-09-01T07:01:26.587Z,54.96
2022-09-01T07:03:27.454Z,55.16
2022-09-01T07:04:26.470Z,55.36
2022-09-01T07:08:27.429Z,54.36
2022-09-01T07:09:47.197Z,54.28
2022-09-01T07:10:27.345Z,54.13
2022-09-01T07:12:27.805Z,53.90
2022-09-01T07:13:26.337Z,53.41
2022-09-01T07:14:26.327Z,52.80
2022-09-01T07:17:27.290Z,52.54
2022-09-01T07:18:26.607Z,52.13
2022-09-01T07:19:48.351Z,51.63
2022-09-01T07:20:27.619Z,50.33
2022-09-01T07:22:06.255Z,50.28
2022-09-01T07:23:27.210Z,50.71
2022-09-01T07:24:31.632Z,50.78
2022-09-01T07:26:27.182Z,49.33
2022-09-01T07:27:26.172Z,49.31
2022-09-01T07:28:36.129Z,49.04
2022-09-01T07:29:27.148Z,49.12
2022-09-01T07:30:26.139Z,49.03
2022-09-01T07:32:44.257Z,48.98
2022-09-01T07:33:44.166Z,49.08
2022-09-01T07:34:46.288Z,49.15
2022-09-01T07:35:27.094Z,48.84
2022-09-01T07:36:26.829Z,49.23
2022-09-01T07:41:44.194Z,55.12
2022-09-01T07:43:29.647Z,49.85
2022-09-01T07:44:26.960Z,48.56
2022-09-01T07:45:26.575Z,47.93
2022-09-01T07:46:41.316Z,49.99
2022-09-01T07:49:33.832Z,50.73
2022-09-01T07:51:35.262Z,51.43
2022-09-01T07:51:42.358Z,51.31
2022-09-01T07:52:26.875Z,51.36
2022-09-01T07:53:25.875Z,51.52
2022-09-01T07:54:25.856Z,51.42
2022-09-01T07:55:25.840Z,50.43
2022-09-01T07:56:25.837Z,50.29
2022-09-01T07:57:25.865Z,49.90
2022-09-01T07:58:25.798Z,50.01
2022-09-01T07:59:25.802Z,49.21
2022-09-01T08:00:25.833Z,49.84
2022-09-01T08:01:25.794Z,49.39
2022-09-01T08:02:25.832Z,49.73
2022-09-01T08:03:25.771Z,50.53
2022-09-01T08:04:25.731Z,51.09
2022-09-01T08:05:25.728Z,50.99
2022-09-01T08:06:25.716Z,50.36
2022-09-01T08:07:25.711Z,48.95
2022-09-01T08:08:29.018Z,48.98
2022-09-01T08:09:37.147Z,49.10
2022-09-01T08:10:26.671Z,50.37
2022-09-01T08:11:58.090Z,50.34
2022-09-01T08:12:29.663Z,50.07
2022-09-01T08:13:26.042Z,49.21
2022-09-01T08:14:25.622Z,49.67
2022-09-01T08:16:06.292Z,50.18
2022-09-01T08:16:26.634Z,50.16
2022-09-01T08:18:26.585Z,49.44
2022-09-01T08:19:25.566Z,48.68
2022-09-01T08:20:25.553Z,47.59
2022-09-01T08:21:25.560Z,46.90
2022-09-01T08:22:25.636Z,46.67
2022-09-01T08:23:25.534Z,46.29
2022-09-01T08:24:25.523Z,46.15
2022-09-01T08:25:25.494Z,45.94
2022-09-01T08:26:25.520Z,46.60
2022-09-01T08:27:25.474Z,46.32
2022-09-01T08:28:27.058Z,46.00
2022-09-01T08:29:25.468Z,45.99
2022-09-01T08:30:25.436Z,44.94
2022-09-01T08:31:26.179Z,44.43
2022-09-01T08:32:25.419Z,44.67
2022-09-01T08:33:25.422Z,44.52
2022-09-01T08:34:25.416Z,44.92
2022-09-01T08:35:25.380Z,44.62
2022-09-01T08:36:26.184Z,44.24
2022-09-01T08:37:25.359Z,43.90
2022-09-01T08:38:25.349Z,44.27
2022-09-01T08:39:25.361Z,44.34
2022-09-01T08:40:25.379Z,44.62
2022-09-01T08:41:28.827Z,44.16
2022-09-01T08:42:26.299Z,43.63
2022-09-01T08:43:25.293Z,43.23
2022-09-01T08:44:25.293Z,44.02
2022-09-01T08:45:25.279Z,43.65
2022-09-01T08:46:25.298Z,43.41
2022-09-01T08:47:35.390Z,43.53
2022-09-01T08:49:16.417Z,43.23
2022-09-01T08:49:27.381Z,43.66
2022-09-01T08:50:25.233Z,43.58
2022-09-01T08:51:25.217Z,43.77
2022-09-01T08:52:25.535Z,43.48
2022-09-01T08:53:25.183Z,43.41
2022-09-01T08:54:29.349Z,43.49
2022-09-01T08:55:25.182Z,43.36
2022-09-01T08:56:25.156Z,43.60
2022-09-01T08:57:25.138Z,43.89
2022-09-01T08:58:25.114Z,43.84
2022-09-01T08:59:25.125Z,43.65
2022-09-01T09:00:25.116Z,43.71
2022-09-01T09:01:25.181Z,43.87
2022-09-01T09:02:25.181Z,43.65
2022-09-01T09:03:25.079Z,43.72
2022-09-01T09:04:25.058Z,43.71
2022-09-01T09:05:25.045Z,43.81
2022-09-01T09:06:25.054Z,43.62
2022-09-01T09:07:25.029Z,43.56
2022-09-01T09:08:25.037Z,43.46
2022-09-01T09:09:32.362Z,43.38
2022-09-01T09:10:25.978Z,43.56
2022-09-01T09:11:25.020Z,43.52
2022-09-01T09:12:24.972Z,43.96
2022-09-01T09:13:24.958Z,43.96
2022-09-01T09:14:24.949Z,44.34
2022-09-01T09:15:24.944Z,44.08
2022-09-01T09:16:24.984Z,43.68
2022-09-01T09:17:24.909Z,43.38
2022-09-01T09:18:39.915Z,43.53
2022-09-01T09:19:25.881Z,43.46
2022-09-01T09:20:24.873Z,42.93
2022-09-01T09:21:24.878Z,43.03
2022-09-01T09:22:24.858Z,43.34
2022-09-01T09:23:24.935Z,43.21
2022-09-01T09:24:24.832Z,43.76
2022-09-01T09:25:24.821Z,42.84
2022-09-01T09:26:24.847Z,43.29
2022-09-01T09:27:25.252Z,42.96
2022-09-01T09:28:25.786Z,43.50
2022-09-01T09:29:24.773Z,43.48
2022-09-01T09:30:26.373Z,43.04
2022-09-01T09:31:24.800Z,43.23
2022-09-01T09:32:39.403Z,43.49
2022-09-01T09:33:47.828Z,43.04
2022-09-01T09:34:25.722Z,42.71
2022-09-01T09:35:24.692Z,43.44
2022-09-01T09:36:25.431Z,43.28
2022-09-01T09:37:24.678Z,43.58
2022-09-01T09:38:24.678Z,42.79
2022-09-01T09:39:24.646Z,43.19
2022-09-01T09:40:25.325Z,43.14
2022-09-01T09:41:27.193Z,42.90
2022-09-01T09:42:25.038Z,42.43
2022-09-01T09:43:25.656Z,42.95
2022-09-01T09:44:24.590Z,43.03
2022-09-01T09:45:24.583Z,42.73
2022-09-01T09:46:25.344Z,42.73
2022-09-01T09:47:42.652Z,42.73
2022-09-01T09:48:25.567Z,42.81
2022-09-01T09:49:34.497Z,42.77
2022-09-01T09:50:25.518Z,43.08
2022-09-01T09:51:24.519Z,43.36
2022-09-01T09:52:24.504Z,43.75
2022-09-01T09:53:24.489Z,44.22
2022-09-01T09:54:24.514Z,43.85
2022-09-01T09:55:24.490Z,43.35
2022-09-01T09:56:24.507Z,43.80
2022-09-01T09:57:24.494Z,43.34
2022-09-01T09:58:24.462Z,43.44
2022-09-01T09:59:45.836Z,43.03
2022-09-01T10:00:25.950Z,43.26
2022-09-01T10:01:24.662Z,44.00
2022-09-01T10:02:27.740Z,44.35
2022-09-01T10:03:29.099Z,44.10
2022-09-01T10:04:24.428Z,44.64
2022-09-01T10:05:24.392Z,44.33
2022-09-01T10:06:24.399Z,43.84
2022-09-01T10:07:24.363Z,43.85
2022-09-01T10:08:24.383Z,43.81
2022-09-01T10:09:24.386Z,44.13
2022-09-01T10:10:24.339Z,43.64
2022-09-01T10:11:24.327Z,43.74
2022-09-01T10:12:24.321Z,44.21
2022-09-01T10:13:24.281Z,44.27
2022-09-01T10:14:35.509Z,44.01
2022-09-01T10:15:25.235Z,44.29
2022-09-01T10:16:24.904Z,44.80
2022-09-01T10:17:24.611Z,45.19
2022-09-01T10:18:31.262Z,45.21
2022-09-01T10:19:25.198Z,45.18
2022-09-01T10:20:24.185Z,45.18
2022-09-01T10:21:24.202Z,45.51
2022-09-01T10:22:24.157Z,45.69
2022-09-01T10:23:24.674Z,46.17
2022-09-01T10:24:27.078Z,45.99
2022-09-01T10:25:25.127Z,46.03
2022-09-01T10:26:24.135Z,46.10
2022-09-01T10:27:24.139Z,45.96
2022-09-01T10:28:24.514Z,46.45
2022-09-01T10:29:24.084Z,45.93
2022-09-01T10:30:24.075Z,45.91
2022-09-01T10:31:29.220Z,45.63
2022-09-01T10:32:37.911Z,46.32
2022-09-01T10:33:25.044Z,46.34
2022-09-01T10:34:24.019Z,46.07
2022-09-01T10:35:24.019Z,45.64
2022-09-01T10:36:24.487Z,45.76
2022-09-01T10:37:23.990Z,45.89
2022-09-01T10:38:23.982Z,45.86
2022-09-01T10:39:28.332Z,46.04
2022-09-01T10:40:30.378Z,45.80
2022-09-01T10:41:24.984Z,46.35
2022-09-01T10:42:23.943Z,47.05
2022-09-01T10:43:23.922Z,45.63
2022-09-01T10:44:23.906Z,46.15
2022-09-01T10:45:23.896Z,46.37
2022-09-01T10:46:26.213Z,45.95
2022-09-01T10:47:23.909Z,46.10
2022-09-01T10:48:32.504Z,46.49
2022-09-01T10:49:27.573Z,46.40
2022-09-01T10:50:23.842Z,46.09
2022-09-01T10:51:29.700Z,46.97
2022-09-01T10:52:28.482Z,46.46
2022-09-01T10:53:26.970Z,46.62
2022-09-01T10:54:23.796Z,45.99
2022-09-01T10:55:25.416Z,45.89
2022-09-01T10:56:28.732Z,46.21
2022-09-01T10:57:27.673Z,45.92
2022-09-01T10:59:34.752Z,46.01
2022-09-01T11:00:40.384Z,46.70
2022-09-01T11:01:47.277Z,46.43
2022-09-01T11:02:29.521Z,45.89
2022-09-01T11:03:32.783Z,46.24
2022-09-01T11:04:24.741Z,46.35
2022-09-01T11:05:23.674Z,46.59
2022-09-01T11:06:23.661Z,47.02
2022-09-01T11:07:38.893Z,47.01
2022-09-01T11:08:24.644Z,47.98
2022-09-01T11:09:23.650Z,47.32
2022-09-01T11:10:32.396Z,47.47
2022-09-01T11:11:24.610Z,47.09
2022-09-01T11:12:29.861Z,47.36
2022-09-01T11:13:24.575Z,47.97
2022-09-01T11:14:23.566Z,48.31
2022-09-01T11:15:23.572Z,47.79
2022-09-01T11:16:45.803Z,47.66
2022-09-01T11:17:24.565Z,47.76
2022-09-01T11:18:23.776Z,47.66
2022-09-01T11:19:23.529Z,47.08
2022-09-01T11:20:23.501Z,46.31
2022-09-01T11:21:23.920Z,46.31
2022-09-01T11:22:23.492Z,45.20
2022-09-01T11:23:23.463Z,45.54
2022-09-01T11:24:23.456Z,46.27
2022-09-01T11:25:23.464Z,46.24
2022-09-01T11:26:23.429Z,46.37
2022-09-01T11:27:23.412Z,45.91
2022-09-01T11:28:23.403Z,45.66
2022-09-01T11:29:23.397Z,46.39
2022-09-01T11:30:23.383Z,47.12
2022-09-01T11:31:23.404Z,46.84
2022-09-01T11:32:23.347Z,46.01
2022-09-01T11:33:23.338Z,46.08
2022-09-01T11:34:23.331Z,46.36
2022-09-01T11:35:23.327Z,46.12
2022-09-01T11:36:23.335Z,45.61
2022-09-01T11:37:23.296Z,45.60
2022-09-01T11:38:23.283Z,45.88
2022-09-01T11:39:23.274Z,46.43
2022-09-01T11:40:23.327Z,47.33
2022-09-01T11:41:23.242Z,46.52
2022-09-01T11:42:23.255Z,46.28
2022-09-01T11:43:23.246Z,46.47
2022-09-01T11:44:23.219Z,46.37
2022-09-01T11:45:23.209Z,46.19
2022-09-01T11:46:23.245Z,45.76
2022-09-01T11:47:23.199Z,45.38
2022-09-01T11:48:23.167Z,46.00
2022-09-01T11:49:23.159Z,46.82
2022-09-01T11:50:23.147Z,46.56
2022-09-01T11:51:23.147Z,46.28
2022-09-01T11:52:23.139Z,45.93
2022-09-01T11:53:23.120Z,45.37
2022-09-01T11:54:23.107Z,44.66
2022-09-01T11:55:23.080Z,44.85
2022-09-01T11:56:23.080Z,44.63
2022-09-01T11:57:23.078Z,43.91
2022-09-01T11:58:23.049Z,44.36
2022-09-01T11:59:23.044Z,44.31
2022-09-01T12:00:23.050Z,44.10
2022-09-01T12:01:23.010Z,44.43
2022-09-01T12:02:23.266Z,44.35
2022-09-01T12:03:23.459Z,44.78
2022-09-01T12:04:22.991Z,43.81
2022-09-01T12:05:22.966Z,43.73
2022-09-01T12:06:22.963Z,43.74
2022-09-01T12:07:22.964Z,43.22
2022-09-01T12:08:24.059Z,43.44
2022-09-01T12:09:22.913Z,43.20
2022-09-01T12:10:22.903Z,42.89
2022-09-01T12:11:22.904Z,43.01
2022-09-01T12:12:22.882Z,42.90
2022-09-01T12:13:22.929Z,43.29
2022-09-01T12:14:22.885Z,44.63
2022-09-01T12:15:22.853Z,45.22
2022-09-01T12:16:22.891Z,44.83
2022-09-01T12:17:22.826Z,44.61
2022-09-01T12:18:22.829Z,44.60
2022-09-01T12:19:22.796Z,44.91
2022-09-01T12:20:26.801Z,44.53
2022-09-01T12:21:23.785Z,45.13
2022-09-01T12:22:22.765Z,43.99
2022-09-01T12:23:22.900Z,44.10
2022-09-01T12:24:22.741Z,44.31
2022-09-01T12:25:22.737Z,44.39
2022-09-01T12:26:22.726Z,44.33
2022-09-01T12:27:22.705Z,43.52
2022-09-01T12:28:22.716Z,43.05
2022-09-01T12:29:22.688Z,43.12
2022-09-01T12:30:22.680Z,43.60
2022-09-01T12:31:22.735Z,43.56
2022-09-01T12:32:22.649Z,43.99
2022-09-01T12:33:24.205Z,44.23
2022-09-01T12:34:22.632Z,43.71
2022-09-01T12:35:22.619Z,43.43
2022-09-01T12:36:22.618Z,43.08
2022-09-01T12:37:22.591Z,42.99
2022-09-01T12:38:22.769Z,44.36
2022-09-01T12:39:22.571Z,44.96
2022-09-01T12:40:22.612Z,43.80
2022-09-01T12:42:22.533Z,43.89
2022-09-01T12:43:22.524Z,43.91
2022-09-01T12:44:22.532Z,44.16
2022-09-01T12:45:22.499Z,43.43
2022-09-01T12:46:22.492Z,43.53
2022-09-01T12:47:22.474Z,43.67
2022-09-01T12:48:22.464Z,44.00
2022-09-01T12:49:22.473Z,44.05
2022-09-01T12:50:22.443Z,44.27
2022-09-01T12:51:26.563Z,45.12
2022-09-01T12:52:23.412Z,43.54
2022-09-01T12:53:22.525Z,43.54
2022-09-01T12:54:22.394Z,43.57
2022-09-01T12:56:23.395Z,43.07
2022-09-01T12:57:22.356Z,43.10
2022-09-01T12:58:22.345Z,43.17
2022-09-01T12:59:26.274Z,42.37
2022-09-01T13:00:23.352Z,42.21
2022-09-01T13:01:22.385Z,42.71
2022-09-01T13:02:22.431Z,43.20
2022-09-01T13:03:22.333Z,42.88
2022-09-01T13:04:22.276Z,42.53
2022-09-01T13:05:24.872Z,42.33
2022-09-01T13:06:23.368Z,41.78
2022-09-01T13:07:22.237Z,41.59
2022-09-01T13:08:22.237Z,41.42
2022-09-01T13:09:22.226Z,41.07
2022-09-01T13:10:22.803Z,41.42
2022-09-01T13:11:22.197Z,41.52
2022-09-01T13:12:22.218Z,41.78
2022-09-01T13:13:22.389Z,42.45
2022-09-01T13:14:22.170Z,43.01
2022-09-01T13:15:22.146Z,42.28